sensor_id;sensor_type;location;lat;lon;timestamp;pressure;altitude;pressure_sealevel;temperature
22269;BMP280;11303;50.772;19.670;2023-11-19T00:00:59;99397.41;;;0.03
22269;BMP280;11303;50.772;19.670;2023-11-19T00:03:01;99397.41;;;0.03
22269;BMP280;11303;50.772;19.670;2023-11-19T00:05:04;99405.84;;;0.04
22269;BMP280;11303;50.772;19.670;2023-11-19T00:07:06;99401.50;;;0.04
22269;BMP280;11303;50.772;19.670;2023-11-19T00:09:09;99398.94;;;-0.01
22269;BMP280;11303;50.772;19.670;2023-11-19T00:11:10;99394.06;;;-0.03
22269;BMP280;11303;50.772;19.670;2023-11-19T00:13:12;99390.97;;;-0.05
22269;BMP280;11303;50.772;19.670;2023-11-19T00:15:15;99390.97;;;-0.05
22269;BMP280;11303;50.772;19.670;2023-11-19T00:17:17;99398.41;;;-0.03
22269;BMP280;11303;50.772;19.670;2023-11-19T00:19:19;99399.66;;;-0.06
22269;BMP280;11303;50.772;19.670;2023-11-19T00:21:21;99399.38;;;-0.09
22269;BMP280;11303;50.772;19.670;2023-11-19T00:23:23;99398.59;;;-0.10
22269;BMP280;11303;50.772;19.670;2023-11-19T00:25:25;99399.63;;;-0.11
22269;BMP280;11303;50.772;19.670;2023-11-19T00:27:27;99389.41;;;-0.11
22269;BMP280;11303;50.772;19.670;2023-11-19T00:29:28;99379.44;;;-0.12
22269;BMP280;11303;50.772;19.670;2023-11-19T00:31:30;99372.00;;;-0.14
22269;BMP280;11303;50.772;19.670;2023-11-19T00:33:32;99376.88;;;-0.12
22269;BMP280;11303;50.772;19.670;2023-11-19T00:35:34;99375.56;;;-0.15
22269;BMP280;11303;50.772;19.670;2023-11-19T00:37:35;99370.22;;;-0.13
22269;BMP280;11303;50.772;19.670;2023-11-19T00:39:37;99360.72;;;-0.18
22269;BMP280;11303;50.772;19.670;2023-11-19T00:41:39;99357.41;;;-0.19
22269;BMP280;11303;50.772;19.670;2023-11-19T00:43:41;99359.97;;;-0.19
22269;BMP280;11303;50.772;19.670;2023-11-19T00:45:43;99362.28;;;-0.17
22269;BMP280;11303;50.772;19.670;2023-11-19T00:47:45;99368.16;;;-0.16
22269;BMP280;11303;50.772;19.670;2023-11-19T00:49:47;99366.34;;;-0.16
22269;BMP280;11303;50.772;19.670;2023-11-19T00:51:52;99357.94;;;-0.16
22269;BMP280;11303;50.772;19.670;2023-11-19T00:53:54;99348.72;;;-0.17
22269;BMP280;11303;50.772;19.670;2023-11-19T00:55:56;99343.59;;;-0.17
22269;BMP280;11303;50.772;19.670;2023-11-19T00:57:58;99340.28;;;-0.18
22269;BMP280;11303;50.772;19.670;2023-11-19T01:00:00;99327.50;;;-0.18
22269;BMP280;11303;50.772;19.670;2023-11-19T01:02:02;99325.44;;;-0.21
22269;BMP280;11303;50.772;19.670;2023-11-19T01:04:05;99327.25;;;-0.22
22269;BMP280;11303;50.772;19.670;2023-11-19T01:06:07;99334.59;;;-0.25
22269;BMP280;11303;50.772;19.670;2023-11-19T01:08:10;99331.31;;;-0.21
22269;BMP280;11303;50.772;19.670;2023-11-19T01:10:12;99333.63;;;-0.19
22269;BMP280;11303;50.772;19.670;2023-11-19T01:12:13;99330.81;;;-0.17
22269;BMP280;11303;50.772;19.670;2023-11-19T01:14:15;99318.84;;;-0.12
22269;BMP280;11303;50.772;19.670;2023-11-19T01:16:19;99310.19;;;-0.11
22269;BMP280;11303;50.772;19.670;2023-11-19T01:18:21;99324.47;;;-0.10
22269;BMP280;11303;50.772;19.670;2023-11-19T01:20:23;99322.72;;;-0.09
22269;BMP280;11303;50.772;19.670;2023-11-19T01:22:25;99328.09;;;-0.06
22269;BMP280;11303;50.772;19.670;2023-11-19T01:24:27;99319.41;;;-0.05
22269;BMP280;11303;50.772;19.670;2023-11-19T01:26:30;99319.66;;;-0.06
22269;BMP280;11303;50.772;19.670;2023-11-19T01:28:32;99329.63;;;-0.05
22269;BMP280;11303;50.772;19.670;2023-11-19T01:30:34;99313.50;;;-0.05
22269;BMP280;11303;50.772;19.670;2023-11-19T01:32:35;99312.75;;;-0.06
22269;BMP280;11303;50.772;19.670;2023-11-19T01:34:38;99309.38;;;-0.11
22269;BMP280;11303;50.772;19.670;2023-11-19T01:36:40;99316.56;;;-0.08
22269;BMP280;11303;50.772;19.670;2023-11-19T01:38:41;99316.31;;;-0.07
22269;BMP280;11303;50.772;19.670;2023-11-19T01:40:43;99321.97;;;-0.05
22269;BMP280;11303;50.772;19.670;2023-11-19T01:42:45;99313.03;;;-0.02
22269;BMP280;11303;50.772;19.670;2023-11-19T01:45:07;99307.66;;;-0.01
22269;BMP280;11303;50.772;19.670;2023-11-19T01:47:10;99300.00;;;-0.01
22269;BMP280;11303;50.772;19.670;2023-11-19T01:49:16;99296.16;;;-0.03
22269;BMP280;11303;50.772;19.670;2023-11-19T01:51:21;99288.75;;;-0.05
22269;BMP280;11303;50.772;19.670;2023-11-19T01:53:23;99283.09;;;-0.07
22269;BMP280;11303;50.772;19.670;2023-11-19T01:55:27;99289.25;;;-0.08
22269;BMP280;11303;50.772;19.670;2023-11-19T01:57:31;99294.34;;;-0.08
22269;BMP280;11303;50.772;19.670;2023-11-19T01:59:33;99299.22;;;-0.06
22269;BMP280;11303;50.772;19.670;2023-11-19T02:01:35;99287.94;;;-0.05
22269;BMP280;11303;50.772;19.670;2023-11-19T02:03:42;99288.75;;;-0.05
22269;BMP280;11303;50.772;19.670;2023-11-19T02:05:44;99280.53;;;-0.07
22269;BMP280;11303;50.772;19.670;2023-11-19T02:07:46;99290.00;;;-0.07
22269;BMP280;11303;50.772;19.670;2023-11-19T02:09:47;99287.94;;;-0.10
22269;BMP280;11303;50.772;19.670;2023-11-19T02:11:49;99282.31;;;-0.12
22269;BMP280;11303;50.772;19.670;2023-11-19T02:13:52;99266.97;;;-0.12
22269;BMP280;11303;50.772;19.670;2023-11-19T02:15:54;99267.22;;;-0.14
22269;BMP280;11303;50.772;19.670;2023-11-19T02:17:56;99257.25;;;-0.15
22269;BMP280;11303;50.772;19.670;2023-11-19T02:19:58;99251.88;;;-0.14
22269;BMP280;11303;50.772;19.670;2023-11-19T02:22:00;99248.56;;;-0.14
22269;BMP280;11303;50.772;19.670;2023-11-19T02:24:06;99252.91;;;-0.15
22269;BMP280;11303;50.772;19.670;2023-11-19T02:26:18;99246.25;;;-0.16
22269;BMP280;11303;50.772;19.670;2023-11-19T02:28:20;99236.03;;;-0.16
22269;BMP280;11303;50.772;19.670;2023-11-19T02:30:22;99235.00;;;-0.15
22269;BMP280;11303;50.772;19.670;2023-11-19T02:32:30;99230.94;;;-0.11
22269;BMP280;11303;50.772;19.670;2023-11-19T02:34:32;99219.69;;;-0.10
22269;BMP280;11303;50.772;19.670;2023-11-19T02:36:34;99222.78;;;-0.08
22269;BMP280;11303;50.772;19.670;2023-11-19T02:38:36;99218.94;;;-0.05
22269;BMP280;11303;50.772;19.670;2023-11-19T02:40:38;99217.66;;;-0.08
22269;BMP280;11303;50.772;19.670;2023-11-19T02:42:39;99220.22;;;-0.08
22269;BMP280;11303;50.772;19.670;2023-11-19T02:44:45;99210.25;;;-0.09
22269;BMP280;11303;50.772;19.670;2023-11-19T02:46:47;99196.94;;;-0.11
22269;BMP280;11303;50.772;19.670;2023-11-19T02:48:50;99193.63;;;-0.12
22269;BMP280;11303;50.772;19.670;2023-11-19T02:50:51;99191.06;;;-0.12
22269;BMP280;11303;50.772;19.670;2023-11-19T02:52:55;99181.09;;;-0.13
22269;BMP280;11303;50.772;19.670;2023-11-19T02:54:59;99173.16;;;-0.17
22269;BMP280;11303;50.772;19.670;2023-11-19T02:57:01;99174.19;;;-0.18
22269;BMP280;11303;50.772;19.670;2023-11-19T02:59:05;99162.16;;;-0.17
22269;BMP280;11303;50.772;19.670;2023-11-19T03:01:21;99146.81;;;-0.17
22269;BMP280;11303;50.772;19.670;2023-11-19T03:03:31;99129.47;;;-0.15
22269;BMP280;11303;50.772;19.670;2023-11-19T03:05:40;99119.00;;;-0.14
22269;BMP280;11303;50.772;19.670;2023-11-19T03:07:43;99134.34;;;-0.14
22269;BMP280;11303;50.772;19.670;2023-11-19T03:09:47;99125.63;;;-0.18
22269;BMP280;11303;50.772;19.670;2023-11-19T03:11:50;99131.50;;;-0.17
22269;BMP280;11303;50.772;19.670;2023-11-19T03:13:52;99115.66;;;-0.20
22269;BMP280;11303;50.772;19.670;2023-11-19T03:15:54;99106.72;;;-0.17
22269;BMP280;11303;50.772;19.670;2023-11-19T03:17:56;99098.53;;;-0.19
22269;BMP280;11303;50.772;19.670;2023-11-19T03:19:57;99091.66;;;-0.19
22269;BMP280;11303;50.772;19.670;2023-11-19T03:22:01;99094.44;;;-0.20
22269;BMP280;11303;50.772;19.670;2023-11-19T03:24:03;99094.69;;;-0.22
22269;BMP280;11303;50.772;19.670;2023-11-19T03:26:05;99102.38;;;-0.22
22269;BMP280;11303;50.772;19.670;2023-11-19T03:28:07;99097.25;;;-0.22
22269;BMP280;11303;50.772;19.670;2023-11-19T03:30:09;99096.47;;;-0.22
22269;BMP280;11303;50.772;19.670;2023-11-19T03:32:11;99107.47;;;-0.22
22269;BMP280;11303;50.772;19.670;2023-11-19T03:34:13;99093.91;;;-0.22
22269;BMP280;11303;50.772;19.670;2023-11-19T03:36:15;99099.81;;;-0.22
22269;BMP280;11303;50.772;19.670;2023-11-19T03:38:17;99104.38;;;-0.24
22269;BMP280;11303;50.772;19.670;2023-11-19T03:40:18;99113.34;;;-0.21
22269;BMP280;11303;50.772;19.670;2023-11-19T03:42:20;99110.28;;;-0.23
22269;BMP280;11303;50.772;19.670;2023-11-19T03:44:22;99109.25;;;-0.22
22269;BMP280;11303;50.772;19.670;2023-11-19T03:46:24;99100.31;;;-0.20
22269;BMP280;11303;50.772;19.670;2023-11-19T03:48:25;99083.19;;;-0.19
22269;BMP280;11303;50.772;19.670;2023-11-19T03:50:27;99069.66;;;-0.20
22269;BMP280;11303;50.772;19.670;2023-11-19T03:52:29;99057.63;;;-0.19
22269;BMP280;11303;50.772;19.670;2023-11-19T03:54:31;99063.53;;;-0.19
22269;BMP280;11303;50.772;19.670;2023-11-19T03:56:34;99057.63;;;-0.19
22269;BMP280;11303;50.772;19.670;2023-11-19T03:58:36;99060.97;;;-0.19
22269;BMP280;11303;50.772;19.670;2023-11-19T04:00:37;99070.94;;;-0.17
22269;BMP280;11303;50.772;19.670;2023-11-19T04:02:40;99064.03;;;-0.16
22269;BMP280;11303;50.772;19.670;2023-11-19T04:04:42;99064.56;;;-0.14
22269;BMP280;11303;50.772;19.670;2023-11-19T04:06:43;99063.28;;;-0.12
22269;BMP280;11303;50.772;19.670;2023-11-19T04:08:45;99056.38;;;-0.11
22269;BMP280;11303;50.772;19.670;2023-11-19T04:10:47;99059.19;;;-0.13
22269;BMP280;11303;50.772;19.670;2023-11-19T04:12:49;99048.47;;;-0.15
22269;BMP280;11303;50.772;19.670;2023-11-19T04:14:50;99046.91;;;-0.16
22269;BMP280;11303;50.772;19.670;2023-11-19T04:17:02;99037.72;;;-0.17
22269;BMP280;11303;50.772;19.670;2023-11-19T04:19:04;99023.41;;;-0.18
22269;BMP280;11303;50.772;19.670;2023-11-19T04:21:07;99018.31;;;-0.18
22269;BMP280;11303;50.772;19.670;2023-11-19T04:23:09;99013.19;;;-0.18
22269;BMP280;11303;50.772;19.670;2023-11-19T04:25:10;99018.31;;;-0.18
22269;BMP280;11303;50.772;19.670;2023-11-19T04:27:13;99024.94;;;-0.17
22269;BMP280;11303;50.772;19.670;2023-11-19T04:29:16;99008.06;;;-0.18
22269;BMP280;11303;50.772;19.670;2023-11-19T04:31:18;99003.22;;;-0.20
22269;BMP280;11303;50.772;19.670;2023-11-19T04:33:20;99001.69;;;-0.21
22269;BMP280;11303;50.772;19.670;2023-11-19T04:35:22;99006.03;;;-0.21
22269;BMP280;11303;50.772;19.670;2023-11-19T04:37:23;98990.69;;;-0.21
22269;BMP280;11303;50.772;19.670;2023-11-19T04:39:25;98992.75;;;-0.23
22269;BMP280;11303;50.772;19.670;2023-11-19T04:41:28;98990.72;;;-0.26
22269;BMP280;11303;50.772;19.670;2023-11-19T04:43:30;98978.19;;;-0.28
22269;BMP280;11303;50.772;19.670;2023-11-19T04:45:31;98980.75;;;-0.28
22269;BMP280;11303;50.772;19.670;2023-11-19T04:47:34;99000.41;;;-0.28
22269;BMP280;11303;50.772;19.670;2023-11-19T04:49:40;98996.06;;;-0.28
22269;BMP280;11303;50.772;19.670;2023-11-19T04:51:45;99008.06;;;-0.28
22269;BMP280;11303;50.772;19.670;2023-11-19T04:53:49;99001.44;;;-0.29
22269;BMP280;11303;50.772;19.670;2023-11-19T04:55:51;99005.00;;;-0.30
22269;BMP280;11303;50.772;19.670;2023-11-19T04:57:54;98994.78;;;-0.30
22269;BMP280;11303;50.772;19.670;2023-11-19T04:59:56;99006.22;;;-0.33
22269;BMP280;11303;50.772;19.670;2023-11-19T05:01:57;99017.00;;;-0.31
22269;BMP280;11303;50.772;19.670;2023-11-19T05:04:00;99008.56;;;-0.31
22269;BMP280;11303;50.772;19.670;2023-11-19T05:06:01;99001.13;;;-0.33
22269;BMP280;11303;50.772;19.670;2023-11-19T05:08:03;98996.00;;;-0.33
22269;BMP280;11303;50.772;19.670;2023-11-19T05:10:06;98996.84;;;-0.32
22269;BMP280;11303;50.772;19.670;2023-11-19T05:12:09;98993.47;;;-0.33
22269;BMP280;11303;50.772;19.670;2023-11-19T05:14:13;98994.75;;;-0.36
22269;BMP280;11303;50.772;19.670;2023-11-19T05:16:16;98989.16;;;-0.32
22269;BMP280;11303;50.772;19.670;2023-11-19T05:18:19;98978.13;;;-0.33
22269;BMP280;11303;50.772;19.670;2023-11-19T05:20:21;98973.03;;;-0.33
22269;BMP280;11303;50.772;19.670;2023-11-19T05:22:22;98968.16;;;-0.34
22269;BMP280;11303;50.772;19.670;2023-11-19T05:24:24;98966.16;;;-0.32
22269;BMP280;11303;50.772;19.670;2023-11-19T05:26:26;98956.47;;;-0.30
22269;BMP280;11303;50.772;19.670;2023-11-19T05:28:28;98947.00;;;-0.30
22269;BMP280;11303;50.772;19.670;2023-11-19T05:30:30;98942.38;;;-0.33
22269;BMP280;11303;50.772;19.670;2023-11-19T05:32:32;98952.34;;;-0.31
22269;BMP280;11303;50.772;19.670;2023-11-19T05:34:33;98966.94;;;-0.32
22269;BMP280;11303;50.772;19.670;2023-11-19T05:36:35;98966.69;;;-0.30
22269;BMP280;11303;50.772;19.670;2023-11-19T05:38:37;98956.19;;;-0.29
22269;BMP280;11303;50.772;19.670;2023-11-19T05:40:38;98941.63;;;-0.28
22269;BMP280;11303;50.772;19.670;2023-11-19T05:42:41;98937.31;;;-0.28
22269;BMP280;11303;50.772;19.670;2023-11-19T05:44:43;98937.06;;;-0.26
22269;BMP280;11303;50.772;19.670;2023-11-19T05:46:45;98940.38;;;-0.26
22269;BMP280;11303;50.772;19.670;2023-11-19T05:48:47;98940.09;;;-0.24
22269;BMP280;11303;50.772;19.670;2023-11-19T05:50:49;98920.19;;;-0.27
22269;BMP280;11303;50.772;19.670;2023-11-19T05:52:51;98916.34;;;-0.25
22269;BMP280;11303;50.772;19.670;2023-11-19T05:54:54;98925.28;;;-0.27
22269;BMP280;11303;50.772;19.670;2023-11-19T05:56:56;98927.34;;;-0.24
22269;BMP280;11303;50.772;19.670;2023-11-19T05:58:59;98924.78;;;-0.24
22269;BMP280;11303;50.772;19.670;2023-11-19T06:01:08;98930.38;;;-0.22
22269;BMP280;11303;50.772;19.670;2023-11-19T06:03:10;98925.28;;;-0.22
22269;BMP280;11303;50.772;19.670;2023-11-19T06:05:12;98918.16;;;-0.20
22269;BMP280;11303;50.772;19.670;2023-11-19T06:07:14;98923.25;;;-0.20
22269;BMP280;11303;50.772;19.670;2023-11-19T06:09:16;98921.47;;;-0.20
22269;BMP280;11303;50.772;19.670;2023-11-19T06:11:20;98918.66;;;-0.18
22269;BMP280;11303;50.772;19.670;2023-11-19T06:13:22;98917.09;;;-0.19
22269;BMP280;11303;50.772;19.670;2023-11-19T06:15:26;98917.63;;;-0.17
22269;BMP280;11303;50.772;19.670;2023-11-19T06:17:31;98912.25;;;-0.15
22269;BMP280;11303;50.772;19.670;2023-11-19T06:19:33;98916.34;;;-0.14
22269;BMP280;11303;50.772;19.670;2023-11-19T06:21:36;98930.41;;;-0.12
22269;BMP280;11303;50.772;19.670;2023-11-19T06:23:38;98933.44;;;-0.10
22269;BMP280;11303;50.772;19.670;2023-11-19T06:25:40;98926.03;;;-0.11
22269;BMP280;11303;50.772;19.670;2023-11-19T06:27:42;98934.22;;;-0.14
22269;BMP280;11303;50.772;19.670;2023-11-19T06:29:44;98924.00;;;-0.20
22269;BMP280;11303;50.772;19.670;2023-11-19T06:31:45;98927.56;;;-0.21
22269;BMP280;11303;50.772;19.670;2023-11-19T06:33:50;98920.97;;;-0.22
22269;BMP280;11303;50.772;19.670;2023-11-19T06:35:52;98918.66;;;-0.18
22269;BMP280;11303;50.772;19.670;2023-11-19T06:37:53;98899.22;;;-0.14
22269;BMP280;11303;50.772;19.670;2023-11-19T06:39:56;98904.59;;;-0.10
22269;BMP280;11303;50.772;19.670;2023-11-19T06:41:58;98911.22;;;-0.04
22269;BMP280;11303;50.772;19.670;2023-11-19T06:44:00;98912.22;;;0.05
22269;BMP280;11303;50.772;19.670;2023-11-19T06:46:01;98902.75;;;0.16
22269;BMP280;11303;50.772;19.670;2023-11-19T06:48:04;98895.06;;;0.21
22269;BMP280;11303;50.772;19.670;2023-11-19T06:50:06;98897.59;;;0.26
22269;BMP280;11303;50.772;19.670;2023-11-19T06:52:08;98891.69;;;0.36
22269;BMP280;11303;50.772;19.670;2023-11-19T06:54:10;98886.78;;;0.45
22269;BMP280;11303;50.772;19.670;2023-11-19T06:56:22;98882.66;;;0.54
22269;BMP280;11303;50.772;19.670;2023-11-19T06:58:24;98883.66;;;0.58
22269;BMP280;11303;50.772;19.670;2023-11-19T07:00:25;98883.94;;;0.57
22269;BMP280;11303;50.772;19.670;2023-11-19T07:02:28;98874.97;;;0.59
22269;BMP280;11303;50.772;19.670;2023-11-19T07:04:30;98874.47;;;0.52
22269;BMP280;11303;50.772;19.670;2023-11-19T07:06:32;98872.47;;;0.44
22269;BMP280;11303;50.772;19.670;2023-11-19T07:08:36;98868.66;;;0.36
22269;BMP280;11303;50.772;19.670;2023-11-19T07:10:38;98863.09;;;0.29
22269;BMP280;11303;50.772;19.670;2023-11-19T07:12:40;98868.22;;;0.24
22269;BMP280;11303;50.772;19.670;2023-11-19T07:14:41;98859.78;;;0.18
22269;BMP280;11303;50.772;19.670;2023-11-19T07:16:44;98858.28;;;0.12
22269;BMP280;11303;50.772;19.670;2023-11-19T07:18:46;98859.56;;;0.09
22269;BMP280;11303;50.772;19.670;2023-11-19T07:20:51;98850.09;;;0.10
22269;BMP280;11303;50.772;19.670;2023-11-19T07:22:53;98842.41;;;0.15
22269;BMP280;11303;50.772;19.670;2023-11-19T07:24:58;98834.72;;;0.20
22269;BMP280;11303;50.772;19.670;2023-11-19T07:27:00;98850.81;;;0.26
22269;BMP280;11303;50.772;19.670;2023-11-19T07:29:04;98841.81;;;0.33
22269;BMP280;11303;50.772;19.670;2023-11-19T07:31:09;98839.22;;;0.44
22269;BMP280;11303;50.772;19.670;2023-11-19T07:33:10;98836.63;;;0.49
22269;BMP280;11303;50.772;19.670;2023-11-19T07:35:13;98823.81;;;0.54
22269;BMP280;11303;50.772;19.670;2023-11-19T07:37:15;98829.13;;;0.68
22269;BMP280;11303;50.772;19.670;2023-11-19T07:39:19;98822.41;;;0.82
22269;BMP280;11303;50.772;19.670;2023-11-19T07:41:22;98819.75;;;0.93
22269;BMP280;11303;50.772;19.670;2023-11-19T07:43:37;98822.00;;;1.04
22269;BMP280;11303;50.772;19.670;2023-11-19T07:45:54;98812.63;;;1.24
22269;BMP280;11303;50.772;19.670;2023-11-19T07:47:59;98813.28;;;1.35
22269;BMP280;11303;50.772;19.670;2023-11-19T07:50:03;98820.75;;;1.31
22269;BMP280;11303;50.772;19.670;2023-11-19T07:52:05;98816.16;;;1.28
22269;BMP280;11303;50.772;19.670;2023-11-19T07:54:22;98802.13;;;1.25
22269;BMP280;11303;50.772;19.670;2023-11-19T07:56:24;98803.63;;;1.26
22269;BMP280;11303;50.772;19.670;2023-11-19T07:58:26;98796.75;;;1.22
22269;BMP280;11303;50.772;19.670;2023-11-19T08:00:31;98798.34;;;1.18
22269;BMP280;11303;50.772;19.670;2023-11-19T08:02:41;98792.44;;;1.17
22269;BMP280;11303;50.772;19.670;2023-11-19T08:04:43;98789.88;;;1.17
22269;BMP280;11303;50.772;19.670;2023-11-19T08:06:47;98782.50;;;1.11
22269;BMP280;11303;50.772;19.670;2023-11-19T08:08:49;98783.81;;;1.08
22269;BMP280;11303;50.772;19.670;2023-11-19T08:10:51;98775.59;;;1.11
22269;BMP280;11303;50.772;19.670;2023-11-19T08:12:54;98774.84;;;1.11
22269;BMP280;11303;50.772;19.670;2023-11-19T08:14:55;98761.22;;;1.15
22269;BMP280;11303;50.772;19.670;2023-11-19T08:16:57;98756.31;;;1.19
22269;BMP280;11303;50.772;19.670;2023-11-19T08:18:59;98752.69;;;1.25
22269;BMP280;11303;50.772;19.670;2023-11-19T08:21:01;98753.19;;;1.27
22269;BMP280;11303;50.772;19.670;2023-11-19T08:23:03;98746.88;;;1.19
22269;BMP280;11303;50.772;19.670;2023-11-19T08:25:08;98756.56;;;1.22
22269;BMP280;11303;50.772;19.670;2023-11-19T08:27:10;98752.94;;;1.29
22269;BMP280;11303;50.772;19.670;2023-11-19T08:29:12;98756.19;;;1.34
22269;BMP280;11303;50.772;19.670;2023-11-19T08:31:15;98765.25;;;1.45
22269;BMP280;11303;50.772;19.670;2023-11-19T08:33:16;98772.91;;;1.51
22269;BMP280;11303;50.772;19.670;2023-11-19T08:35:18;98774.75;;;1.45
22269;BMP280;11303;50.772;19.670;2023-11-19T08:37:20;98780.16;;;1.43
22269;BMP280;11303;50.772;19.670;2023-11-19T08:39:25;98776.56;;;1.44
22269;BMP280;11303;50.772;19.670;2023-11-19T08:41:27;98755.03;;;1.45
22269;BMP280;11303;50.772;19.670;2023-11-19T08:43:29;98755.47;;;1.53
22269;BMP280;11303;50.772;19.670;2023-11-19T08:45:32;98749.25;;;1.59
22269;BMP280;11303;50.772;19.670;2023-11-19T08:47:34;98750.72;;;1.65
22269;BMP280;11303;50.772;19.670;2023-11-19T08:49:38;98752.69;;;1.73
22269;BMP280;11303;50.772;19.670;2023-11-19T08:51:40;98744.72;;;1.75
22269;BMP280;11303;50.772;19.670;2023-11-19T08:53:43;98742.22;;;1.70
22269;BMP280;11303;50.772;19.670;2023-11-19T08:55:44;98735.75;;;1.77
22269;BMP280;11303;50.772;19.670;2023-11-19T08:57:58;98735.75;;;1.77
22269;BMP280;11303;50.772;19.670;2023-11-19T09:00:00;98731.88;;;1.80
22269;BMP280;11303;50.772;19.670;2023-11-19T09:02:03;98726.03;;;1.74
22269;BMP280;11303;50.772;19.670;2023-11-19T09:04:05;98713.50;;;1.73
22269;BMP280;11303;50.772;19.670;2023-11-19T09:06:08;98734.75;;;1.73
22269;BMP280;11303;50.772;19.670;2023-11-19T09:08:10;98727.56;;;1.75
22269;BMP280;11303;50.772;19.670;2023-11-19T09:10:13;98734.72;;;1.78
22269;BMP280;11303;50.772;19.670;2023-11-19T09:12:15;98735.94;;;1.81
22269;BMP280;11303;50.772;19.670;2023-11-19T09:14:17;98714.34;;;1.87
22269;BMP280;11303;50.772;19.670;2023-11-19T09:16:19;98703.50;;;1.90
22269;BMP280;11303;50.772;19.670;2023-11-19T09:18:21;98701.53;;;1.87
22269;BMP280;11303;50.772;19.670;2023-11-19T09:20:23;98692.72;;;1.93
22269;BMP280;11303;50.772;19.670;2023-11-19T09:22:25;98688.75;;;2.01
22269;BMP280;11303;50.772;19.670;2023-11-19T09:24:26;98688.00;;;2.01
22269;BMP280;11303;50.772;19.670;2023-11-19T09:26:28;98679.56;;;2.00
22269;BMP280;11303;50.772;19.670;2023-11-19T09:28:31;98666.59;;;2.10
22269;BMP280;11303;50.772;19.670;2023-11-19T09:30:38;98669.22;;;2.24
22269;BMP280;11303;50.772;19.670;2023-11-19T09:32:43;98664.19;;;2.33
22269;BMP280;11303;50.772;19.670;2023-11-19T09:34:44;98661.25;;;2.26
22269;BMP280;11303;50.772;19.670;2023-11-19T09:36:48;98658.56;;;2.17
22269;BMP280;11303;50.772;19.670;2023-11-19T09:38:49;98652.19;;;2.14
22269;BMP280;11303;50.772;19.670;2023-11-19T09:40:51;98654.66;;;2.20
22269;BMP280;11303;50.772;19.670;2023-11-19T09:42:53;98655.00;;;2.32
22269;BMP280;11303;50.772;19.670;2023-11-19T09:44:56;98656.38;;;2.24
22269;BMP280;11303;50.772;19.670;2023-11-19T09:46:58;98634.09;;;2.25
22269;BMP280;11303;50.772;19.670;2023-11-19T09:49:01;98641.41;;;2.31
22269;BMP280;11303;50.772;19.670;2023-11-19T09:51:04;98631.81;;;2.37
22269;BMP280;11303;50.772;19.670;2023-11-19T09:53:07;98631.25;;;2.40
22269;BMP280;11303;50.772;19.670;2023-11-19T09:55:09;98624.50;;;2.44
22269;BMP280;11303;50.772;19.670;2023-11-19T09:57:11;98616.53;;;2.46
22269;BMP280;11303;50.772;19.670;2023-11-19T09:59:14;98611.22;;;2.42
22269;BMP280;11303;50.772;19.670;2023-11-19T10:01:16;98608.00;;;2.50
22269;BMP280;11303;50.772;19.670;2023-11-19T10:03:35;98605.03;;;2.71
22269;BMP280;11303;50.772;19.670;2023-11-19T10:05:39;98605.84;;;2.85
22269;BMP280;11303;50.772;19.670;2023-11-19T10:07:42;98599.91;;;2.99
22269;BMP280;11303;50.772;19.670;2023-11-19T10:09:46;98602.78;;;2.97
22269;BMP280;11303;50.772;19.670;2023-11-19T10:11:49;98598.44;;;2.98
22269;BMP280;11303;50.772;19.670;2023-11-19T10:13:53;98594.88;;;3.07
22269;BMP280;11303;50.772;19.670;2023-11-19T10:15:56;98581.94;;;3.13
22269;BMP280;11303;50.772;19.670;2023-11-19T10:17:58;98590.28;;;3.32
22269;BMP280;11303;50.772;19.670;2023-11-19T10:20:01;98588.25;;;3.43
22269;BMP280;11303;50.772;19.670;2023-11-19T10:22:05;98583.16;;;3.66
22269;BMP280;11303;50.772;19.670;2023-11-19T10:24:07;98583.31;;;3.69
22269;BMP280;11303;50.772;19.670;2023-11-19T10:26:10;98577.44;;;3.69
22269;BMP280;11303;50.772;19.670;2023-11-19T10:28:11;98570.06;;;3.76
22269;BMP280;11303;50.772;19.670;2023-11-19T10:30:30;98572.28;;;3.69
22269;BMP280;11303;50.772;19.670;2023-11-19T10:32:32;98563.75;;;3.59
22269;BMP280;11303;50.772;19.670;2023-11-19T10:34:34;98566.13;;;3.56
22269;BMP280;11303;50.772;19.670;2023-11-19T10:36:39;98555.78;;;3.70
22269;BMP280;11303;50.772;19.670;2023-11-19T10:38:56;98550.56;;;3.75
22269;BMP280;11303;50.772;19.670;2023-11-19T10:40:58;98552.81;;;3.54
22269;BMP280;11303;50.772;19.670;2023-11-19T10:43:03;98547.84;;;3.35
22269;BMP280;11303;50.772;19.670;2023-11-19T10:45:21;98539.63;;;3.33
22269;BMP280;11303;50.772;19.670;2023-11-19T10:47:24;98547.34;;;3.33
22269;BMP280;11303;50.772;19.670;2023-11-19T10:49:30;98536.84;;;3.20
22269;BMP280;11303;50.772;19.670;2023-11-19T10:51:34;98527.81;;;3.09
22269;BMP280;11303;50.772;19.670;2023-11-19T10:53:37;98514.03;;;3.05
22269;BMP280;11303;50.772;19.670;2023-11-19T10:55:40;98516.91;;;2.89
22269;BMP280;11303;50.772;19.670;2023-11-19T10:57:43;98512.19;;;2.83
22269;BMP280;11303;50.772;19.670;2023-11-19T10:59:47;98499.63;;;2.67
22269;BMP280;11303;50.772;19.670;2023-11-19T11:01:56;98496.53;;;2.57
22269;BMP280;11303;50.772;19.670;2023-11-19T11:03:59;98493.19;;;2.42
22269;BMP280;11303;50.772;19.670;2023-11-19T11:06:03;98480.47;;;2.37
22269;BMP280;11303;50.772;19.670;2023-11-19T11:08:06;98474.22;;;2.29
22269;BMP280;11303;50.772;19.670;2023-11-19T11:10:08;98477.13;;;2.23
22269;BMP280;11303;50.772;19.670;2023-11-19T11:12:11;98468.97;;;2.21
22269;BMP280;11303;50.772;19.670;2023-11-19T11:14:14;98462.03;;;2.21
22269;BMP280;11303;50.772;19.670;2023-11-19T11:16:19;98454.81;;;2.09
22269;BMP280;11303;50.772;19.670;2023-11-19T11:18:21;98457.81;;;1.97
22269;BMP280;11303;50.772;19.670;2023-11-19T11:20:25;98451.25;;;1.91
22269;BMP280;11303;50.772;19.670;2023-11-19T11:22:28;98444.53;;;1.82
22269;BMP280;11303;50.772;19.670;2023-11-19T11:36:19;98415.09;;;1.13
22269;BMP280;11303;50.772;19.670;2023-11-19T11:38:22;98420.28;;;1.08
22269;BMP280;11303;50.772;19.670;2023-11-19T11:40:25;98405.00;;;1.03
22269;BMP280;11303;50.772;19.670;2023-11-19T11:42:34;98416.13;;;0.93
22269;BMP280;11303;50.772;19.670;2023-11-19T11:45:11;98411.22;;;0.78
22269;BMP280;11303;50.772;19.670;2023-11-19T11:47:13;98403.22;;;0.60
22269;BMP280;11303;50.772;19.670;2023-11-19T11:49:14;98396.78;;;0.44
22269;BMP280;11303;50.772;19.670;2023-11-19T11:51:17;98392.81;;;0.32
22269;BMP280;11303;50.772;19.670;2023-11-19T11:53:23;98389.41;;;0.18
22269;BMP280;11303;50.772;19.670;2023-11-19T11:55:35;98377.50;;;0.08